createdAt,value
2022-09-06T00:01:13.560Z,7.65
2022-09-06T00:03:41.584Z,4.72
2022-09-06T00:06:13.851Z,5.07
2022-09-06T00:08:42.509Z,7.65
2022-09-06T00:11:09.978Z,5.32
2022-09-06T00:13:37.991Z,4.82
2022-09-06T00:16:17.457Z,4.72
2022-09-06T00:18:45.110Z,4.95
2022-09-06T00:21:19.792Z,4.85
2022-09-06T00:23:47.730Z,5.22
2022-09-06T00:26:15.755Z,4.43
2022-09-06T00:28:43.326Z,5.95
2022-09-06T00:31:12.285Z,4.22
2022-09-06T00:33:40.068Z,4.30
2022-09-06T00:36:07.975Z,3.92
2022-09-06T00:38:35.548Z,4.32
2022-09-06T00:41:03.300Z,4.38
2022-09-06T00:43:30.941Z,4.60
2022-09-06T00:45:58.432Z,4.88
2022-09-06T00:48:26.152Z,13.27
2022-09-06T00:50:55.661Z,7.45
2022-09-06T00:53:23.521Z,5.07
2022-09-06T00:55:51.048Z,5.10
2022-09-06T00:58:18.527Z,4.65
2022-09-06T01:00:46.008Z,4.38
2022-09-06T01:03:14.287Z,4.50
2022-09-06T01:05:54.386Z,4.00
2022-09-06T01:08:32.012Z,4.50
2022-09-06T01:11:21.241Z,5.55
2022-09-06T01:14:07.188Z,6.72
2022-09-06T01:16:52.890Z,5.57
2022-09-06T01:19:20.415Z,4.70
2022-09-06T01:21:47.810Z,4.85
2022-09-06T01:24:34.114Z,4.28
2022-09-06T01:27:20.471Z,5.38
2022-09-06T01:29:48.035Z,4.82
2022-09-06T01:32:41.648Z,7.28
2022-09-06T01:35:28.150Z,4.97
2022-09-06T01:37:56.561Z,8.43
2022-09-06T01:40:24.011Z,12.68
2022-09-06T01:42:53.478Z,5.32
2022-09-06T01:45:22.841Z,10.38
2022-09-06T01:47:59.403Z,6.95
2022-09-06T01:50:26.888Z,6.45
2022-09-06T01:53:09.706Z,7.63
2022-09-06T01:55:45.387Z,5.80
2022-09-06T01:58:25.367Z,5.63
2022-09-06T02:00:57.988Z,5.15
2022-09-06T02:03:31.628Z,6.18
2022-09-06T02:06:03.768Z,8.52
2022-09-06T02:08:44.555Z,7.97
2022-09-06T02:11:14.868Z,5.30
2022-09-06T02:14:04.450Z,5.68
2022-09-06T02:16:33.230Z,5.30
2022-09-06T02:19:06.315Z,6.75
2022-09-06T02:21:36.288Z,5.47
2022-09-06T02:24:06.217Z,5.53
2022-09-06T02:26:35.383Z,5.38
2022-09-06T02:29:02.920Z,5.78
2022-09-06T02:31:34.920Z,7.50
2022-09-06T02:34:02.910Z,6.03
2022-09-06T02:36:31.433Z,6.97
2022-09-06T02:39:01.737Z,5.82
2022-09-06T02:41:31.100Z,6.07
2022-09-06T02:43:58.643Z,6.70
2022-09-06T02:46:26.226Z,6.35
2022-09-06T02:48:53.712Z,6.32
2022-09-06T02:51:21.246Z,7.10
2022-09-06T02:53:48.780Z,6.82
2022-09-06T02:56:16.393Z,6.25
2022-09-06T02:58:43.844Z,6.00
2022-09-06T03:01:11.415Z,6.65
2022-09-06T03:03:39.103Z,6.30
2022-09-06T03:06:06.718Z,6.70
2022-09-06T03:08:36.457Z,6.18
2022-09-06T03:11:04.055Z,6.80
2022-09-06T03:13:31.775Z,7.72
2022-09-06T03:16:00.070Z,7.80
2022-09-06T03:18:28.826Z,7.68
2022-09-06T03:20:57.056Z,6.93
2022-09-06T03:23:25.562Z,7.63
2022-09-06T03:25:53.068Z,7.65
2022-09-06T03:28:21.156Z,12.77
2022-09-06T03:30:49.737Z,8.82
2022-09-06T03:33:17.645Z,7.40
2022-09-06T03:35:52.848Z,7.82
2022-09-06T03:38:20.846Z,7.80
2022-09-06T03:40:49.098Z,12.75
2022-09-06T03:43:17.884Z,7.38
2022-09-06T03:45:46.894Z,8.68
2022-09-06T03:48:14.902Z,8.30
2022-09-06T03:50:46.496Z,8.18
2022-09-06T03:53:14.577Z,7.57
2022-09-06T03:55:45.110Z,7.70
2022-09-06T03:58:12.825Z,8.02
2022-09-06T04:00:40.316Z,9.85
2022-09-06T04:03:07.831Z,7.88
2022-09-06T04:05:35.384Z,8.32
2022-09-06T04:08:03.027Z,8.02
2022-09-06T04:10:30.477Z,7.95
2022-09-06T04:12:57.946Z,8.45
2022-09-06T04:15:25.351Z,7.57
2022-09-06T04:17:52.846Z,8.43
2022-09-06T04:20:20.257Z,8.07
2022-09-06T04:22:47.797Z,8.25
2022-09-06T04:25:15.375Z,9.02
2022-09-06T04:27:42.827Z,9.02
2022-09-06T04:30:10.456Z,7.95
2022-09-06T04:32:37.942Z,8.00
2022-09-06T04:35:05.702Z,7.80
2022-09-06T04:37:33.243Z,7.13
2022-09-06T04:40:00.847Z,8.13
2022-09-06T04:42:28.503Z,16.95
2022-09-06T04:44:56.145Z,16.55
2022-09-06T04:47:23.861Z,7.88
2022-09-06T04:49:51.342Z,18.42
2022-09-06T04:52:18.916Z,8.35
2022-09-06T04:54:46.368Z,8.55
2022-09-06T04:57:13.958Z,8.25
2022-09-06T04:59:41.503Z,8.18
2022-09-06T05:02:09.190Z,9.25
2022-09-06T05:04:36.644Z,8.00
2022-09-06T05:07:08.777Z,8.50
2022-09-06T05:09:36.940Z,13.93
2022-09-06T05:12:04.751Z,8.73
2022-09-06T05:14:32.312Z,10.77
2022-09-06T05:16:59.869Z,9.80
2022-09-06T05:19:28.039Z,16.45
2022-09-06T05:21:55.507Z,9.45
2022-09-06T05:24:23.043Z,7.93
2022-09-06T05:26:50.573Z,8.20
2022-09-06T05:29:18.264Z,8.18
2022-09-06T05:31:45.832Z,13.20
2022-09-06T05:34:15.102Z,8.55
2022-09-06T05:36:42.592Z,9.30
2022-09-06T05:39:10.113Z,8.27
2022-09-06T05:41:37.621Z,8.52
2022-09-06T05:44:05.122Z,8.25
2022-09-06T05:46:32.919Z,8.52
2022-09-06T05:49:04.797Z,8.30
2022-09-06T05:51:32.947Z,8.40
2022-09-06T05:54:00.904Z,7.78
2022-09-06T05:56:28.404Z,8.32
2022-09-06T05:58:55.926Z,7.53
2022-09-06T06:01:30.982Z,8.20
2022-09-06T06:04:00.625Z,7.10
2022-09-06T06:06:28.957Z,7.47
2022-09-06T06:08:56.557Z,7.30
2022-09-06T06:11:24.169Z,7.25
2022-09-06T06:13:51.832Z,6.70
2022-09-06T06:16:20.782Z,6.00
2022-09-06T06:18:51.993Z,6.22
2022-09-06T06:21:27.167Z,6.90
2022-09-06T06:23:55.715Z,9.60
2022-09-06T06:26:23.734Z,15.23
2022-09-06T06:28:51.784Z,13.57
2022-09-06T06:31:20.997Z,27.38
2022-09-06T06:33:49.023Z,31.40
2022-09-06T06:36:16.484Z,15.82
2022-09-06T06:38:44.961Z,16.08
2022-09-06T06:41:13.710Z,8.32
2022-09-06T06:43:41.404Z,6.55
2022-09-06T06:46:13.468Z,10.98
2022-09-06T06:48:41.423Z,12.68
2022-09-06T06:51:10.941Z,11.07
2022-09-06T06:53:38.454Z,4.78
2022-09-06T06:56:17.967Z,4.88
2022-09-06T06:58:46.447Z,4.15
2022-09-06T07:01:14.027Z,4.43
2022-09-06T07:03:41.560Z,4.70
2022-09-06T07:08:38.289Z,4.90
2022-09-06T07:11:07.010Z,4.75
2022-09-06T07:13:34.823Z,5.03
2022-09-06T07:16:12.249Z,4.93
2022-09-06T07:18:43.291Z,5.10
2022-09-06T07:24:08.421Z,4.45
2022-09-06T07:26:37.541Z,4.07
2022-09-06T07:29:08.243Z,3.78
2022-09-06T07:34:25.920Z,4.13
2022-09-06T07:36:56.524Z,4.60
2022-09-06T07:39:24.180Z,3.50
2022-09-06T07:41:52.245Z,4.38
2022-09-06T07:44:20.286Z,4.65
2022-09-06T07:46:47.865Z,4.43
2022-09-06T07:49:15.552Z,3.72
2022-09-06T07:51:43.057Z,3.55
2022-09-06T07:54:29.866Z,4.55
2022-09-06T07:56:58.370Z,3.40
2022-09-06T07:59:25.875Z,3.78
2022-09-06T08:01:53.429Z,3.55
2022-09-06T08:04:21.099Z,3.70
2022-09-06T08:09:39.813Z,3.45
2022-09-06T08:12:10.250Z,3.42
2022-09-06T08:14:37.875Z,3.00
2022-09-06T08:17:05.749Z,2.92
2022-09-06T08:19:34.452Z,3.50
2022-09-06T08:22:02.071Z,2.97
2022-09-06T08:24:29.918Z,3.13
2022-09-06T08:26:57.463Z,3.85
2022-09-06T08:29:26.069Z,5.32
2022-09-06T08:31:53.649Z,3.45
2022-09-06T08:34:21.313Z,3.80
2022-09-06T08:36:48.857Z,3.63
2022-09-06T08:39:16.911Z,3.83
2022-09-06T08:41:49.872Z,4.95
2022-09-06T08:47:18.488Z,3.67
2022-09-06T08:49:52.983Z,3.45
2022-09-06T08:52:26.631Z,4.13
2022-09-06T08:54:54.360Z,3.70
2022-09-06T08:57:27.824Z,4.30
2022-09-06T08:59:58.433Z,3.88
2022-09-06T09:02:25.971Z,3.30
2022-09-06T09:04:56.186Z,3.65
2022-09-06T09:07:42.186Z,3.75
2022-09-06T09:10:13.273Z,3.15
2022-09-06T09:12:44.824Z,3.80
2022-09-06T09:15:13.989Z,3.03
2022-09-06T09:17:42.044Z,4.13
2022-09-06T09:20:10.975Z,4.82
2022-09-06T09:22:39.375Z,3.78
2022-09-06T09:25:08.324Z,6.68
2022-09-06T09:27:37.502Z,7.65
2022-09-06T09:32:54.666Z,3.75
2022-09-06T09:35:22.192Z,4.65
2022-09-06T09:38:00.083Z,4.15
2022-09-06T09:40:31.141Z,3.22
2022-09-06T09:43:10.271Z,4.47
2022-09-06T09:45:37.783Z,3.30
2022-09-06T09:48:37.730Z,2.90
2022-09-06T09:51:27.449Z,5.32
2022-09-06T09:53:56.801Z,2.97
2022-09-06T09:56:30.404Z,3.00
2022-09-06T09:58:58.621Z,3.33
2022-09-06T10:01:28.109Z,3.47
2022-09-06T10:09:38.825Z,2.92
2022-09-06T10:12:06.477Z,4.03
2022-09-06T10:14:45.112Z,3.28
2022-09-06T10:17:20.336Z,4.75
2022-09-06T10:19:48.868Z,3.17
2022-09-06T10:22:20.197Z,2.90
2022-09-06T10:24:55.854Z,2.83
2022-09-06T10:27:26.822Z,3.10
2022-09-06T10:30:07.978Z,3.50
2022-09-06T10:32:38.549Z,9.45
2022-09-06T10:35:25.116Z,2.90
2022-09-06T10:38:10.130Z,3.78
2022-09-06T10:40:56.154Z,14.27
2022-09-06T10:43:25.156Z,4.35
2022-09-06T10:45:58.268Z,3.25
2022-09-06T10:48:42.114Z,3.10
2022-09-06T10:51:12.610Z,3.60
2022-09-06T10:53:40.132Z,3.28
2022-09-06T10:56:07.553Z,4.00
2022-09-06T11:01:31.207Z,5.90
2022-09-06T11:04:04.561Z,3.80
2022-09-06T11:06:45.873Z,13.07
2022-09-06T11:09:17.822Z,3.10
2022-09-06T11:11:49.546Z,4.60
2022-09-06T11:14:17.532Z,3.40
2022-09-06T11:17:23.283Z,3.28
2022-09-06T11:19:54.787Z,3.08
2022-09-06T11:22:25.153Z,2.70
2022-09-06T11:25:18.891Z,3.50
2022-09-06T11:27:47.871Z,3.10
2022-09-06T11:30:16.360Z,4.55
2022-09-06T11:32:48.920Z,4.50
2022-09-06T11:35:28.672Z,4.47
2022-09-06T11:38:00.472Z,3.13
2022-09-06T11:40:30.109Z,8.68
2022-09-06T11:42:59.421Z,8.35
2022-09-06T11:45:45.935Z,4.75
2022-09-06T11:48:26.412Z,4.65
2022-09-06T11:51:00.187Z,5.95
2022-09-06T11:53:31.749Z,4.00
2022-09-06T11:55:59.263Z,3.75
2022-09-06T11:58:32.234Z,4.35
2022-09-06T12:01:16.646Z,3.80
2022-09-06T12:06:31.884Z,6.55
2022-09-06T12:08:59.556Z,7.95
2022-09-06T12:11:30.569Z,8.52
2022-09-06T12:14:05.973Z,3.60
2022-09-06T12:16:53.769Z,4.00
2022-09-06T12:19:44.049Z,3.88
2022-09-06T12:22:30.188Z,4.75
2022-09-06T12:25:01.926Z,4.05
2022-09-06T12:27:29.435Z,3.40
2022-09-06T12:30:05.618Z,3.85
2022-09-06T12:32:38.610Z,3.85
2022-09-06T12:37:59.757Z,4.00
2022-09-06T12:40:29.377Z,5.50
2022-09-06T12:42:57.154Z,3.85
2022-09-06T12:45:27.449Z,6.05
2022-09-06T12:48:09.009Z,4.32
2022-09-06T12:50:36.924Z,4.45
2022-09-06T12:53:05.667Z,3.95
2022-09-06T12:55:33.328Z,4.28
2022-09-06T12:58:02.650Z,4.10
2022-09-06T13:00:41.317Z,4.20
2022-09-06T13:03:11.847Z,6.65
2022-09-06T13:05:40.349Z,3.88
2022-09-06T13:08:12.987Z,3.63
2022-09-06T13:10:42.945Z,3.60
2022-09-06T13:13:10.450Z,4.40
2022-09-06T13:15:38.141Z,3.58
2022-09-06T13:18:24.000Z,3.50
2022-09-06T13:21:05.320Z,3.78
2022-09-06T13:23:44.064Z,3.40
2022-09-06T13:26:11.607Z,3.97
2022-09-06T13:28:39.406Z,3.70
2022-09-06T13:31:07.071Z,3.90
2022-09-06T13:33:35.341Z,3.50
2022-09-06T13:36:09.053Z,3.90
2022-09-06T13:38:39.881Z,3.90
2022-09-06T13:41:13.568Z,8.23
2022-09-06T13:43:50.238Z,4.50
2022-09-06T13:46:17.745Z,4.63
2022-09-06T13:48:45.439Z,4.07
2022-09-06T13:51:12.876Z,4.10
2022-09-06T13:53:40.425Z,4.38
2022-09-06T13:56:08.723Z,4.07
2022-09-06T13:58:36.707Z,3.97
2022-09-06T14:01:05.058Z,4.00
2022-09-06T14:03:33.304Z,3.70
2022-09-06T14:06:00.862Z,4.47
2022-09-06T14:08:43.932Z,3.75
2022-09-06T14:11:17.077Z,3.92
2022-09-06T14:13:44.583Z,4.10
2022-09-06T14:16:12.711Z,5.95
2022-09-06T14:18:40.621Z,4.30
2022-09-06T14:21:08.233Z,4.22
2022-09-06T14:23:35.777Z,4.28
2022-09-06T14:26:03.778Z,4.70
2022-09-06T14:28:36.547Z,4.32
2022-09-06T14:31:11.595Z,4.28
2022-09-06T14:33:39.086Z,4.28
2022-09-06T14:36:11.035Z,3.80
2022-09-06T14:38:40.090Z,3.97
2022-09-06T14:41:08.369Z,3.95
2022-09-06T14:43:36.049Z,4.32
2022-09-06T14:46:05.272Z,5.80
2022-09-06T14:48:33.232Z,5.95
2022-09-06T14:51:07.740Z,4.00
2022-09-06T14:56:08.832Z,4.00
2022-09-06T14:58:37.521Z,4.40
2022-09-06T15:01:13.232Z,3.67
2022-09-06T15:03:46.793Z,5.25
2022-09-06T15:06:14.441Z,4.88
2022-09-06T15:08:42.480Z,5.22
2022-09-06T15:11:10.726Z,4.28
2022-09-06T15:13:38.794Z,3.75
2022-09-06T15:16:07.589Z,3.83
2022-09-06T15:18:35.561Z,3.97
2022-09-06T15:21:15.627Z,3.67
2022-09-06T15:23:44.081Z,3.80
2022-09-06T15:26:12.145Z,5.68
2022-09-06T15:28:40.178Z,4.50
2022-09-06T15:31:08.477Z,3.63
2022-09-06T15:33:37.012Z,4.30
2022-09-06T15:36:07.872Z,4.60
2022-09-06T15:38:45.305Z,3.90
2022-09-06T15:41:14.517Z,3.92
2022-09-06T15:43:45.247Z,3.72
2022-09-06T15:46:12.897Z,3.50
2022-09-06T15:48:44.905Z,3.40
2022-09-06T15:51:13.642Z,3.63
2022-09-06T15:53:41.369Z,4.03
2022-09-06T15:56:09.666Z,4.20
2022-09-06T15:58:37.223Z,4.32
2022-09-06T16:01:06.414Z,4.40
2022-09-06T16:03:36.111Z,3.75
2022-09-06T16:08:56.159Z,3.92
2022-09-06T16:11:23.719Z,4.07
2022-09-06T16:13:51.266Z,3.88
2022-09-06T16:16:18.806Z,3.90
2022-09-06T16:18:47.370Z,4.00
2022-09-06T16:21:24.055Z,3.95
2022-09-06T16:23:59.529Z,4.03
2022-09-06T16:26:29.075Z,4.32
2022-09-06T16:28:56.894Z,3.75
2022-09-06T16:31:24.681Z,4.30
2022-09-06T16:33:53.783Z,4.80
2022-09-06T16:36:22.072Z,5.40
2022-09-06T16:38:50.284Z,7.40
2022-09-06T16:41:37.224Z,9.57
2022-09-06T16:44:04.787Z,6.97
2022-09-06T16:46:32.457Z,8.20
2022-09-06T16:49:01.537Z,20.98
2022-09-06T16:51:29.605Z,11.10
2022-09-06T16:53:57.169Z,11.57
2022-09-06T16:56:27.010Z,14.68
2022-09-06T16:58:55.573Z,10.45
2022-09-06T17:01:24.303Z,12.93
2022-09-06T17:03:51.911Z,14.07
2022-09-06T17:06:20.391Z,13.93
2022-09-06T17:08:48.156Z,31.73
2022-09-06T17:11:17.212Z,16.63
2022-09-06T17:13:45.773Z,36.72
2022-09-06T17:16:32.417Z,15.63
2022-09-06T17:19:01.337Z,8.57
2022-09-06T17:21:29.549Z,51.88
2022-09-06T17:24:03.090Z,13.82
2022-09-06T17:26:31.574Z,11.13
2022-09-06T17:28:59.229Z,11.65
2022-09-06T17:31:27.205Z,9.18
2022-09-06T17:33:55.240Z,8.50
2022-09-06T17:36:27.060Z,25.70
2022-09-06T17:39:00.086Z,10.30
2022-09-06T17:41:28.918Z,9.13
2022-09-06T17:43:57.449Z,5.78
2022-09-06T17:46:28.935Z,6.10
2022-09-06T17:48:57.247Z,15.05
2022-09-06T17:51:25.227Z,10.35
2022-09-06T17:53:53.008Z,7.68
2022-09-06T17:56:21.117Z,9.43
2022-09-06T17:58:59.394Z,7.97
2022-09-06T18:01:29.555Z,14.95
2022-09-06T18:03:57.733Z,6.45
2022-09-06T18:06:26.182Z,5.05
2022-09-06T18:08:55.104Z,5.10
2022-09-06T18:11:27.042Z,9.90
2022-09-06T18:14:06.043Z,16.27
2022-09-06T18:16:34.613Z,7.75
2022-09-06T18:19:04.599Z,7.00
2022-09-06T18:21:33.186Z,6.13
2022-09-06T18:24:00.788Z,5.97
2022-09-06T18:26:28.295Z,6.25
2022-09-06T18:28:56.116Z,6.22
2022-09-06T18:31:24.742Z,6.72
2022-09-06T18:33:52.736Z,7.03
2022-09-06T18:36:20.754Z,7.20
2022-09-06T18:38:50.674Z,7.30
2022-09-06T18:41:37.074Z,6.45
2022-09-06T18:44:05.673Z,6.43
2022-09-06T18:46:34.291Z,7.03
2022-09-06T18:49:01.829Z,10.35
2022-09-06T18:51:29.724Z,18.67
2022-09-06T18:53:58.435Z,19.95
2022-09-06T18:56:27.130Z,11.32
2022-09-06T18:58:57.177Z,10.65
2022-09-06T19:01:25.441Z,11.73
2022-09-06T19:03:53.079Z,41.22
2022-09-06T19:06:21.955Z,15.93
2022-09-06T19:08:50.134Z,26.95
2022-09-06T19:11:18.538Z,32.08
2022-09-06T19:13:46.974Z,28.70
2022-09-06T19:16:14.834Z,26.10
2022-09-06T19:18:42.947Z,33.28
2022-09-06T19:21:12.090Z,11.25
2022-09-06T19:23:40.877Z,13.45
2022-09-06T19:26:08.365Z,12.20
2022-09-06T19:28:36.727Z,9.85
2022-09-06T19:31:15.891Z,30.27
2022-09-06T19:33:44.423Z,11.93
2022-09-06T19:36:12.673Z,12.65
2022-09-06T19:39:05.525Z,24.27
2022-09-06T19:41:30.433Z,9.60
2022-09-06T19:43:58.701Z,10.55
2022-09-06T19:46:26.804Z,10.05
2022-09-06T19:48:56.131Z,8.32
2022-09-06T19:51:24.371Z,25.95
2022-09-06T19:53:53.507Z,37.08
2022-09-06T19:56:30.128Z,14.07
2022-09-06T19:58:58.789Z,23.30
2022-09-06T20:01:29.251Z,15.77
2022-09-06T20:03:56.939Z,14.43
2022-09-06T20:06:24.616Z,27.02
2022-09-06T20:08:53.056Z,20.80
2022-09-06T20:11:21.950Z,29.25
2022-09-06T20:13:49.545Z,13.15
2022-09-06T20:16:20.243Z,11.93
2022-09-06T20:18:48.631Z,9.50
2022-09-06T20:21:18.463Z,11.48
2022-09-06T20:23:49.972Z,9.88
2022-09-06T20:26:18.101Z,12.70
2022-09-06T20:28:48.871Z,8.57
2022-09-06T20:31:18.072Z,8.65
2022-09-06T20:33:49.425Z,7.30
2022-09-06T20:36:17.851Z,8.07
2022-09-06T20:38:45.863Z,13.30
2022-09-06T20:41:14.717Z,11.32
2022-09-06T20:43:42.624Z,11.65
2022-09-06T20:46:17.534Z,11.80
2022-09-06T20:48:45.843Z,14.35
2022-09-06T20:51:15.936Z,7.55
2022-09-06T20:53:43.468Z,12.07
2022-09-06T20:56:12.368Z,13.90
2022-09-06T20:58:40.185Z,7.47
2022-09-06T21:01:09.185Z,6.32
2022-09-06T21:03:40.713Z,6.80
2022-09-06T21:06:09.087Z,10.77
2022-09-06T21:08:41.841Z,9.05
2022-09-06T21:11:10.246Z,6.65
2022-09-06T21:13:37.845Z,6.90
2022-09-06T21:16:06.183Z,7.95
2022-09-06T21:18:34.481Z,16.40
2022-09-06T21:21:03.152Z,8.30
2022-09-06T21:23:31.617Z,14.32
2022-09-06T21:26:00.461Z,7.95
2022-09-06T21:28:29.034Z,14.07
2022-09-06T21:31:11.924Z,18.55
2022-09-06T21:33:40.943Z,12.95
2022-09-06T21:36:09.867Z,8.50
2022-09-06T21:38:38.630Z,8.52
2022-09-06T21:41:06.958Z,12.85
2022-09-06T21:43:34.484Z,12.70
2022-09-06T21:46:05.908Z,13.38
2022-09-06T21:48:37.620Z,11.30
2022-09-06T21:51:07.691Z,16.08
2022-09-06T21:53:35.737Z,9.10
2022-09-06T21:56:04.030Z,13.25
2022-09-06T21:58:31.599Z,11.55
2022-09-06T22:00:59.687Z,9.35
2022-09-06T22:03:27.949Z,15.10
2022-09-06T22:05:55.504Z,11.18
2022-09-06T22:08:23.550Z,9.32
2022-09-06T22:10:51.368Z,13.38
2022-09-06T22:13:19.739Z,15.20
2022-09-06T22:15:47.361Z,10.02
2022-09-06T22:18:14.900Z,9.48
2022-09-06T22:20:42.446Z,13.75
2022-09-06T22:23:10.302Z,14.13
2022-09-06T22:25:38.022Z,10.48
2022-09-06T22:28:05.824Z,9.45
2022-09-06T22:30:33.314Z,9.77
2022-09-06T22:33:01.514Z,10.45
2022-09-06T22:35:29.317Z,9.02
2022-09-06T22:37:56.899Z,8.82
2022-09-06T22:40:24.413Z,9.50
2022-09-06T22:42:51.975Z,10.93
2022-09-06T22:45:19.427Z,13.65
2022-09-06T22:47:46.948Z,10.50
2022-09-06T22:50:14.429Z,9.02
2022-09-06T22:52:41.878Z,11.23
2022-09-06T22:55:11.281Z,10.35
2022-09-06T22:57:38.813Z,12.30
2022-09-06T23:00:06.710Z,10.15
2022-09-06T23:02:34.355Z,22.50
2022-09-06T23:05:01.896Z,8.52
2022-09-06T23:07:29.495Z,13.93
2022-09-06T23:09:57.483Z,12.40
2022-09-06T23:12:24.970Z,10.13
2022-09-06T23:14:52.429Z,16.08
2022-09-06T23:17:20.066Z,17.80
2022-09-06T23:19:47.645Z,10.20
2022-09-06T23:22:15.100Z,8.60
2022-09-06T23:24:42.783Z,12.25
2022-09-06T23:27:10.225Z,9.70
2022-09-06T23:29:40.964Z,9.48
2022-09-06T23:32:08.658Z,8.35
2022-09-06T23:34:36.830Z,12.98
2022-09-06T23:37:04.859Z,10.88
2022-09-06T23:39:32.344Z,7.80
2022-09-06T23:42:02.076Z,8.27
2022-09-06T23:44:29.692Z,8.60
2022-09-06T23:46:57.215Z,7.97
2022-09-06T23:49:24.738Z,10.85
2022-09-06T23:51:53.922Z,8.10
2022-09-06T23:54:21.450Z,8.60
2022-09-06T23:56:48.930Z,7.90
2022-09-06T23:59:16.361Z,9.23
